Appleby, United Kingdom
Current Conditions -  °F | °C
As of 11:50 PM on Wednesday 26 Nov 2014 (Local Time) from EGNJ Reporting Station
Moderate Fog Moderate Fog  
Wind Chill:   Ceiling: 500
Heat Index:   Visibility: 0.06mi
Dew Point:   Wind: 2mph
Humidity: 93%   Direction: 300°WNW
Pressure: 29.74"   Gusts: NA
Location:  53.62°N, 0.57°W
Report Text: EGNJ 262350Z AUTO 30002KT 0100 FG SCT001/// OVC005/// 09/08 Q1007
Loading
Personal Weather Stations






























Interactive Weather Map New forecast layout! Learn more

10-Day Weather Forecast

Advertisements
Track Severe Weather on mobile